Airfield :
LOGIN :

Register | Disclaimer

   EN    FR    IT 

 










Legend :    VFR   Marginal VFR   IFR   Intensive IFR   Very Intensive IFR
Visi :
Ceiling :
>= 8 km
>= 3000ft
5 to 8 km
1000 to 3000 ft
1500m to 5 km
500 to 1000 ft
800 to 1500m
200 to 500 ft
< 800m
< 200 ft
Symbols :   Thunderstorms  Fog  Heavy snow  Heavy precipitations  Wind > 20 kt
SIGMETs :     Misc.  Thunderstorms  Icing  Turbulence  Mountain Waves  Volcanic Ashes






- Airport Elevation : 776 ft
- IATA code : RMS


ETAR - Ramstein Air Base

CURRENT METAR :
  • 121356Z 23007KT 9999 -RA BKN015 BKN021 03/03 A2958 RMK AO2A RAE03RAB13E24RAB42 SLP028 P0000 T00340034 $

EXPIRED METARs :
  • 121342Z 23006KT 9999 -RA BKN012 BKN018 BKN041 04/04 A2958 RMK AO2A RAE03RAB13E24RAB42 CIG 012V022 SLP028 $
  • 121324Z AUTO 22006KT 9999 SCT013 SCT018 BKN023 BKN041 04/04 A2959 RMK AO2 RAE03RAB13E24 CIG 013V023 SLP032 $
  • 121304Z AUTO 24005KT 9999 BKN015 OVC021 04/04 A2960 RMK AO2 RAE03 CIG 015V021 BKN V SCT CIG 013 RWY08 SLP035 $
  • 121256Z 24006KT 9999 -RA BKN015 BKN021 OVC034 04/04 A2960 RMK AO2A RAB48 CIG 015V022 BKN015 V SCT CIG 013 RWY08 SLP035 P0000 T00420041 $
  • 121226Z AUTO 22007KT 9999 BKN016 BKN023 BKN030 04/04 A2962 RMK AO2 CIG 016V023 BKN016 V SCT SLP042 $
  • 121211Z 22008KT 9999 BKN014 BKN020 BKN029 04/04 A2962 RMK AO2A SLP042 $
  • 121156Z 23009KT 9999 FEW010 SCT014 BKN019 04/04 A2963 RMK AO2A RAE00 SLP045 P0000 60002 70015 T00420042 10046 20036 58012 $
  • 121115Z 21006KT 9999 BKN013 04/04 A2965 RMK AO2A RAE00 SLP052 $

TAF TAF ETAR
Valid from the 12 at 10:00 until the 13 at 16:00 UTC


121015Z 1210/1316 24009KT 6000 -SHRA BR SCT007 BKN010 OVC015 630303 QNH2962INS
BECMG 1211/1212 22010G18KT 9999 NSW BKN015 QNH2948INS
BECMG 1215/1216 19009KT 9999 SCT015 QNH2931INS
BECMG 1220/1221 16010G15KT 9999 BKN060 620603 QNH2915INS
BECMG 1223/1224 18015G25KT 3200 -SN SCT008 BKN010 OVC015 620104 650504 510004 QNH2883INS
TEMPO 1303/1306 6000 -RASN
BECMG 1305/1306 21015G25KT 8000 -SHRA SCT015 BKN020 OVC030 630302 650503 510004 QNH2983INS
BECMG 1309/1310 26015G30KT 9000 -SHRA BKN020 640404 510004 QNH2884INS TX05/1308Z TN00/1300Z



MET'MAP, your aeronautical weather chart ! - Copyright ORBIFLY December 2007 - Disclaimer

ORBIFLY MET'MAP TEAM :

Programming & Development : Alexandra Zaïnal
Concept & original design : Baudouin d'Aumeries
Assistance for programming : Marc-Olivier Méhu
Technical & hardware support : Manuel Goepfert

Contact : metmap@orbifly.com




SOURCES & CREDITS :

   NOAA